createdAt,value
2023-05-12T00:01:55.293Z,13.76
2023-05-12T00:04:25.021Z,13.73
2023-05-12T00:06:52.746Z,13.72
2023-05-12T00:09:20.331Z,13.70
2023-05-12T00:11:48.401Z,13.69
2023-05-12T00:14:16.103Z,13.68
2023-05-12T00:16:43.861Z,13.66
2023-05-12T00:19:12.010Z,13.65
2023-05-12T00:21:43.990Z,13.63
2023-05-12T00:24:12.643Z,13.62
2023-05-12T00:26:40.231Z,13.61
2023-05-12T00:29:08.553Z,13.57
2023-05-12T00:31:37.079Z,13.56
2023-05-12T00:34:04.759Z,13.56
2023-05-12T00:36:32.977Z,13.55
2023-05-12T00:39:02.338Z,13.53
2023-05-12T00:41:29.949Z,13.53
2023-05-12T00:43:57.567Z,13.52
2023-05-12T00:46:25.937Z,13.51
2023-05-12T00:48:55.019Z,13.49
2023-05-12T00:51:22.601Z,13.49
2023-05-12T00:53:53.005Z,13.48
2023-05-12T00:56:22.997Z,13.46
2023-05-12T00:58:55.865Z,13.44
2023-05-12T01:01:24.125Z,13.43
2023-05-12T01:03:54.979Z,13.42
2023-05-12T01:06:30.338Z,13.41
2023-05-12T01:08:58.713Z,13.40
2023-05-12T01:11:27.807Z,13.40
2023-05-12T01:13:55.422Z,13.39
2023-05-12T01:16:27.234Z,13.37
2023-05-12T01:18:57.825Z,13.35
2023-05-12T01:21:26.990Z,13.34
2023-05-12T01:23:59.664Z,13.33
2023-05-12T01:26:32.338Z,13.34
2023-05-12T01:34:25.022Z,13.31
2023-05-12T01:36:57.735Z,13.30
2023-05-12T01:39:26.999Z,13.29
2023-05-12T01:42:21.034Z,13.29
2023-05-12T01:44:53.082Z,13.30
2023-05-12T01:47:21.606Z,13.29
2023-05-12T01:50:10.417Z,13.29
2023-05-12T01:52:38.487Z,13.27
2023-05-12T01:55:10.765Z,13.27
2023-05-12T01:57:48.048Z,13.26
2023-05-12T02:00:17.139Z,13.25
2023-05-12T02:03:10.459Z,13.23
2023-05-12T02:05:39.633Z,13.23
2023-05-12T02:08:07.546Z,13.21
2023-05-12T02:10:36.171Z,13.20
2023-05-12T02:13:06.214Z,13.18
2023-05-12T02:15:36.115Z,13.20
2023-05-12T02:18:04.470Z,13.16
2023-05-12T02:20:33.046Z,13.15
2023-05-12T02:23:02.041Z,13.15
2023-05-12T02:25:34.425Z,13.14
2023-05-12T02:28:01.986Z,13.12
2023-05-12T02:30:31.044Z,13.11
2023-05-12T02:32:59.014Z,13.10
2023-05-12T02:35:26.853Z,13.07
2023-05-12T02:37:55.007Z,13.07
2023-05-12T02:40:24.076Z,13.05
2023-05-12T02:42:51.645Z,13.03
2023-05-12T02:45:19.329Z,13.02
2023-05-12T02:47:48.387Z,13.00
2023-05-12T02:50:17.114Z,12.98
2023-05-12T02:52:44.851Z,12.96
2023-05-12T02:55:13.024Z,12.95
2023-05-12T02:57:40.817Z,12.93
2023-05-12T03:00:10.563Z,12.93
2023-05-12T03:02:40.827Z,12.92
2023-05-12T03:05:13.998Z,12.91
2023-05-12T03:07:42.156Z,12.90
2023-05-12T03:10:10.801Z,12.88
2023-05-12T03:12:38.562Z,12.89
2023-05-12T03:15:11.026Z,12.86
2023-05-12T03:17:39.627Z,12.83
2023-05-12T03:20:09.872Z,12.82
2023-05-12T03:22:38.628Z,12.82
2023-05-12T03:25:10.159Z,12.82
2023-05-12T03:27:37.754Z,12.79
2023-05-12T03:30:11.034Z,12.77
2023-05-12T03:32:40.071Z,12.73
2023-05-12T03:35:14.112Z,12.71
2023-05-12T03:37:41.997Z,12.69
2023-05-12T03:40:35.272Z,12.71
2023-05-12T03:43:03.952Z,12.69
2023-05-12T03:45:31.559Z,12.68
2023-05-12T03:47:59.200Z,12.67
2023-05-12T03:50:28.162Z,12.67
2023-05-12T03:52:56.067Z,12.66
2023-05-12T03:55:24.376Z,12.66
2023-05-12T03:57:52.998Z,12.65
2023-05-12T04:00:22.324Z,12.63
2023-05-12T04:02:54.192Z,12.63
2023-05-12T04:05:49.086Z,12.63
2023-05-12T04:08:17.934Z,12.61
2023-05-12T04:10:46.790Z,12.60
2023-05-12T04:13:15.078Z,12.60
2023-05-12T04:15:42.657Z,12.60
2023-05-12T04:18:11.486Z,12.59
2023-05-12T04:20:40.540Z,12.59
2023-05-12T04:23:09.645Z,12.59
2023-05-12T04:25:40.012Z,12.59
2023-05-12T04:28:11.924Z,12.59
2023-05-12T04:30:42.138Z,12.59
2023-05-12T04:33:10.659Z,12.58
2023-05-12T04:35:39.509Z,12.58
2023-05-12T04:38:08.743Z,12.56
2023-05-12T04:40:37.684Z,12.59
2023-05-12T04:43:05.757Z,12.57
2023-05-12T04:45:37.079Z,12.60
2023-05-12T04:48:05.760Z,12.61
2023-05-12T04:50:34.075Z,12.62
2023-05-12T04:53:01.708Z,12.64
2023-05-12T04:55:30.999Z,12.65
2023-05-12T04:57:59.541Z,12.66
2023-05-12T05:00:27.168Z,12.66
2023-05-12T05:02:54.988Z,12.68
2023-05-12T05:05:23.726Z,12.71
2023-05-12T05:07:52.404Z,12.72
2023-05-12T05:10:20.643Z,12.71
2023-05-12T05:12:50.862Z,12.72
2023-05-12T05:15:20.261Z,12.74
2023-05-12T05:17:49.631Z,12.76
2023-05-12T05:20:19.726Z,12.77
2023-05-12T05:22:49.220Z,12.80
2023-05-12T05:25:17.016Z,12.81
2023-05-12T05:27:44.842Z,12.82
2023-05-12T05:30:14.098Z,12.83
2023-05-12T05:32:42.356Z,12.86
2023-05-12T05:35:11.102Z,12.87
2023-05-12T05:37:43.466Z,12.90
2023-05-12T05:40:11.396Z,12.93
2023-05-12T05:42:40.649Z,12.97
2023-05-12T05:45:09.875Z,12.97
2023-05-12T05:47:39.278Z,13.00
2023-05-12T05:50:08.985Z,13.02
2023-05-12T05:52:39.039Z,13.05
2023-05-12T05:55:08.856Z,13.07
2023-05-12T05:57:37.743Z,13.12
2023-05-12T06:00:08.018Z,13.14
2023-05-12T06:02:42.477Z,13.13
2023-05-12T06:05:20.873Z,13.15
2023-05-12T06:07:50.567Z,13.17
2023-05-12T06:10:18.664Z,13.17
2023-05-12T06:12:46.634Z,13.17
2023-05-12T06:15:15.444Z,13.16
2023-05-12T06:17:44.502Z,13.17
2023-05-12T06:20:14.257Z,13.20
2023-05-12T06:22:44.145Z,13.24
2023-05-12T06:25:11.683Z,13.27
2023-05-12T06:27:39.509Z,13.32
2023-05-12T06:30:08.354Z,13.35
2023-05-12T06:32:36.071Z,13.41
2023-05-12T06:35:08.435Z,13.46
2023-05-12T06:37:36.267Z,13.49
2023-05-12T06:40:03.999Z,13.54
2023-05-12T06:42:32.720Z,13.56
2023-05-12T06:45:01.581Z,13.60
2023-05-12T06:47:29.097Z,13.65
2023-05-12T06:49:58.861Z,13.69
2023-05-12T06:52:27.735Z,13.75
2023-05-12T06:54:58.042Z,13.80
2023-05-12T06:57:26.879Z,13.87
2023-05-12T06:59:55.404Z,13.94
2023-05-12T07:02:22.941Z,13.99
2023-05-12T07:04:50.613Z,14.04
2023-05-12T07:07:18.788Z,14.09
2023-05-12T07:09:47.774Z,14.12
2023-05-12T07:12:15.454Z,14.18
2023-05-12T07:14:43.168Z,14.24
2023-05-12T07:17:12.551Z,14.30
2023-05-12T07:19:40.357Z,14.36
2023-05-12T07:22:07.965Z,14.38
2023-05-12T07:24:35.588Z,14.42
2023-05-12T07:27:04.990Z,14.47
2023-05-12T07:29:33.051Z,14.53
2023-05-12T07:32:03.018Z,14.59
2023-05-12T07:34:32.693Z,14.63
2023-05-12T07:37:02.336Z,14.65
2023-05-12T07:39:33.012Z,14.70
2023-05-12T07:42:02.041Z,14.75
2023-05-12T07:44:33.339Z,14.80
2023-05-12T07:47:01.113Z,14.82
2023-05-12T07:49:28.693Z,14.87
2023-05-12T07:51:56.499Z,14.89
2023-05-12T07:54:25.055Z,14.92
2023-05-12T07:56:52.599Z,14.95
2023-05-12T07:59:24.032Z,14.97
2023-05-12T08:01:54.050Z,15.00
2023-05-12T08:04:23.084Z,15.03
2023-05-12T08:06:52.109Z,15.05
2023-05-12T08:09:21.568Z,15.07
2023-05-12T08:11:51.848Z,15.10
2023-05-12T08:14:22.281Z,15.09
2023-05-12T08:16:49.927Z,15.11
2023-05-12T08:19:19.048Z,15.17
2023-05-12T08:21:46.662Z,15.21
2023-05-12T08:24:14.245Z,15.25
2023-05-12T08:26:42.578Z,15.29
2023-05-12T08:29:10.664Z,15.33
2023-05-12T08:31:40.126Z,15.36
2023-05-12T08:34:11.123Z,15.37
2023-05-12T08:36:44.048Z,15.36
2023-05-12T08:39:12.362Z,15.40
2023-05-12T08:41:45.391Z,15.43
2023-05-12T08:44:15.099Z,15.40
2023-05-12T08:46:48.028Z,15.40
2023-05-12T08:49:22.040Z,15.43
2023-05-12T08:51:58.305Z,15.46
2023-05-12T08:54:31.106Z,15.49
2023-05-12T08:59:29.361Z,15.59
2023-05-12T09:01:57.449Z,15.65
2023-05-12T09:04:25.133Z,15.70
2023-05-12T09:06:56.014Z,15.75
2023-05-12T09:09:26.026Z,15.79
2023-05-12T09:11:58.065Z,15.81
2023-05-12T09:14:26.947Z,15.85
2023-05-12T09:17:01.204Z,15.90
2023-05-12T09:19:29.173Z,15.97
2023-05-12T09:21:59.451Z,16.02
2023-05-12T09:24:36.205Z,16.08
2023-05-12T09:27:08.062Z,16.14
2023-05-12T09:29:48.106Z,16.20
2023-05-12T09:32:34.153Z,16.27
2023-05-12T09:35:07.663Z,16.33
2023-05-12T09:37:37.133Z,16.40
2023-05-12T09:40:07.203Z,16.46
2023-05-12T09:42:43.655Z,16.53
2023-05-12T09:45:11.854Z,16.62
2023-05-12T09:47:40.718Z,16.72
2023-05-12T09:50:11.046Z,16.82
2023-05-12T09:52:41.233Z,16.92
2023-05-12T09:55:12.056Z,17.03
2023-05-12T09:57:42.556Z,17.12
2023-05-12T10:00:28.637Z,17.23
2023-05-12T10:03:01.578Z,17.27
2023-05-12T10:05:32.568Z,17.38
2023-05-12T10:08:05.869Z,17.49
2023-05-12T10:10:34.997Z,17.56
2023-05-12T10:13:04.567Z,17.63
2023-05-12T10:15:33.728Z,17.76
2023-05-12T10:18:02.261Z,17.83
2023-05-12T10:20:30.100Z,17.95
2023-05-12T10:23:00.194Z,18.03
2023-05-12T10:25:29.470Z,18.09
2023-05-12T10:28:03.833Z,18.24
2023-05-12T10:30:34.047Z,18.38
2023-05-12T10:33:02.746Z,18.58
2023-05-12T10:35:34.567Z,18.79
2023-05-12T10:38:04.345Z,18.94
2023-05-12T10:40:34.118Z,19.07
2023-05-12T10:43:02.085Z,19.14
2023-05-12T10:45:30.658Z,19.23
2023-05-12T10:48:09.506Z,19.35
2023-05-12T10:50:37.714Z,19.45
2023-05-12T10:53:06.424Z,19.53
2023-05-12T10:55:45.462Z,19.64
2023-05-12T10:58:14.410Z,19.70
2023-05-12T11:00:46.808Z,19.79
2023-05-12T11:03:17.415Z,19.83
2023-05-12T11:05:49.024Z,19.90
2023-05-12T11:08:17.762Z,19.88
2023-05-12T11:10:48.115Z,19.94
2023-05-12T11:13:15.684Z,19.92
2023-05-12T11:15:44.791Z,19.88
2023-05-12T11:18:13.400Z,19.91
2023-05-12T11:20:41.738Z,20.00
2023-05-12T11:23:09.415Z,20.06
2023-05-12T11:25:38.115Z,20.09
2023-05-12T11:28:12.116Z,20.13
2023-05-12T11:30:50.395Z,20.26
2023-05-12T11:33:21.957Z,20.36
2023-05-12T11:35:51.359Z,20.43
2023-05-12T11:38:22.052Z,20.50
2023-05-12T11:40:49.985Z,20.52
2023-05-12T11:43:22.718Z,20.57
2023-05-12T11:45:50.523Z,20.70
2023-05-12T11:48:18.625Z,20.79
2023-05-12T11:50:48.050Z,20.90
2023-05-12T11:53:18.620Z,20.99
2023-05-12T11:55:51.124Z,21.05
2023-05-12T11:58:26.473Z,21.15
2023-05-12T12:00:55.018Z,21.19
2023-05-12T12:03:22.762Z,21.16
2023-05-12T12:05:59.802Z,21.14
2023-05-12T12:08:27.661Z,21.16
2023-05-12T12:10:55.343Z,21.18
2023-05-12T12:13:25.964Z,21.22
2023-05-12T12:15:53.927Z,21.28
2023-05-12T12:18:21.601Z,21.30
2023-05-12T12:20:50.143Z,21.39
2023-05-12T12:23:20.761Z,21.46
2023-05-12T12:25:49.128Z,21.50
2023-05-12T12:28:17.461Z,21.49
2023-05-12T12:30:46.566Z,21.43
2023-05-12T12:33:14.267Z,21.38
2023-05-12T12:35:42.701Z,21.34
2023-05-12T12:38:10.577Z,21.30
2023-05-12T12:40:38.212Z,21.23
2023-05-12T12:43:07.094Z,21.19
2023-05-12T12:45:34.856Z,21.01
2023-05-12T12:48:03.891Z,20.96
2023-05-12T12:50:32.211Z,20.91
2023-05-12T12:52:59.815Z,20.90
2023-05-12T12:55:27.668Z,20.89
2023-05-12T12:57:55.230Z,20.81
2023-05-12T13:00:23.909Z,20.79
2023-05-12T13:02:51.637Z,20.74
2023-05-12T13:05:20.889Z,20.74
2023-05-12T13:07:49.015Z,20.73
2023-05-12T13:10:16.878Z,20.79
2023-05-12T13:12:44.510Z,20.86
2023-05-12T13:15:12.653Z,20.94
2023-05-12T13:17:40.520Z,21.01
2023-05-12T13:20:09.668Z,21.10
2023-05-12T13:22:38.788Z,21.16
2023-05-12T13:25:07.817Z,21.18
2023-05-12T13:27:35.718Z,21.21
2023-05-12T13:30:04.871Z,21.21
2023-05-12T13:32:33.069Z,21.24
2023-05-12T13:35:01.405Z,21.27
2023-05-12T13:37:29.140Z,21.30
2023-05-12T13:39:58.190Z,21.30
2023-05-12T13:42:26.814Z,21.30
2023-05-12T13:44:56.472Z,21.25
2023-05-12T13:47:25.072Z,21.28
2023-05-12T13:49:56.339Z,21.29
2023-05-12T13:52:24.162Z,21.25
2023-05-12T13:54:52.494Z,21.21
2023-05-12T13:57:22.785Z,21.21
2023-05-12T13:59:51.737Z,21.23
2023-05-12T14:02:19.656Z,21.19
2023-05-12T14:04:47.396Z,21.13
2023-05-12T14:07:15.481Z,21.13
2023-05-12T14:09:43.081Z,21.08
2023-05-12T14:12:10.996Z,21.14
2023-05-12T14:14:39.960Z,21.27
2023-05-12T14:17:07.534Z,21.43
2023-05-12T14:19:36.160Z,21.57
2023-05-12T14:22:12.467Z,21.73
2023-05-12T14:24:47.307Z,21.87
2023-05-12T14:27:15.176Z,21.95
2023-05-12T14:29:44.098Z,21.97
2023-05-12T14:32:11.967Z,21.96
2023-05-12T14:34:39.811Z,21.89
2023-05-12T14:37:08.160Z,21.83
2023-05-12T14:39:35.706Z,21.74
2023-05-12T14:42:03.679Z,21.78
2023-05-12T14:44:33.103Z,21.73
2023-05-12T14:47:02.383Z,21.57
2023-05-12T14:49:32.038Z,21.53
2023-05-12T14:51:59.595Z,21.58
2023-05-12T14:54:27.423Z,21.54
2023-05-12T14:56:55.154Z,21.45
2023-05-12T14:59:25.520Z,21.37
2023-05-12T15:01:53.335Z,21.28
2023-05-12T15:04:22.359Z,21.27
2023-05-12T15:06:50.834Z,21.27
2023-05-12T15:09:18.432Z,21.28
2023-05-12T15:11:49.230Z,21.27
2023-05-12T15:14:16.875Z,21.25
2023-05-12T15:16:44.491Z,21.21
2023-05-12T15:19:13.127Z,21.14
2023-05-12T15:21:42.008Z,21.05
2023-05-12T15:24:09.884Z,21.00
2023-05-12T15:26:39.583Z,20.96
2023-05-12T15:29:08.018Z,20.93
2023-05-12T15:31:37.136Z,20.93
2023-05-12T15:34:05.137Z,20.93
2023-05-12T15:39:03.624Z,20.96
2023-05-12T15:43:58.649Z,20.94
2023-05-12T15:46:26.265Z,20.91
2023-05-12T15:48:54.001Z,20.95
2023-05-12T15:51:21.565Z,20.99
2023-05-12T15:53:51.501Z,21.03
2023-05-12T15:56:21.241Z,21.02
2023-05-12T15:58:49.081Z,20.95
2023-05-12T16:01:16.668Z,20.93
2023-05-12T16:03:44.540Z,20.94
2023-05-12T16:06:12.151Z,20.90
2023-05-12T16:08:40.472Z,20.89
2023-05-12T16:11:08.527Z,20.89
2023-05-12T16:13:37.400Z,20.89
2023-05-12T16:16:05.340Z,20.89
2023-05-12T16:21:02.055Z,20.95
2023-05-12T16:23:29.684Z,20.90
2023-05-12T16:25:59.171Z,20.87
2023-05-12T16:28:27.038Z,20.85
2023-05-12T16:30:56.350Z,20.84
2023-05-12T16:33:24.809Z,20.80
2023-05-12T16:35:52.447Z,20.78
2023-05-12T16:38:20.066Z,20.78
2023-05-12T16:40:47.650Z,20.77
2023-05-12T16:43:15.523Z,20.74
2023-05-12T16:45:44.466Z,20.69
2023-05-12T16:48:13.493Z,20.64
2023-05-12T16:50:41.146Z,20.63
2023-05-12T16:53:08.731Z,20.58
2023-05-12T16:55:36.506Z,20.56
2023-05-12T16:58:04.607Z,20.53
2023-05-12T17:00:32.333Z,20.48
2023-05-12T17:03:02.392Z,20.44
2023-05-12T17:05:33.204Z,20.42
2023-05-12T17:08:00.787Z,20.39
2023-05-12T17:10:28.333Z,20.35
2023-05-12T17:12:57.091Z,20.33
2023-05-12T17:15:25.407Z,20.29
2023-05-12T17:17:53.608Z,20.25
2023-05-12T17:20:21.927Z,20.21
2023-05-12T17:22:52.140Z,20.16
2023-05-12T17:25:20.293Z,20.14
2023-05-12T17:27:51.111Z,20.10
2023-05-12T17:30:19.853Z,20.07
2023-05-12T17:32:47.781Z,20.00
2023-05-12T17:35:16.108Z,19.95
2023-05-12T17:37:44.721Z,19.91
2023-05-12T17:40:17.774Z,19.88
2023-05-12T17:42:46.193Z,19.82
2023-05-12T17:45:14.759Z,19.78
2023-05-12T17:47:42.528Z,19.74
2023-05-12T17:50:12.307Z,19.72
2023-05-12T17:52:40.289Z,19.69
2023-05-12T17:55:08.894Z,19.68
2023-05-12T17:57:37.876Z,19.63
2023-05-12T18:00:10.381Z,19.60
2023-05-12T18:02:45.320Z,19.57
2023-05-12T18:05:13.508Z,19.56
2023-05-12T18:07:42.123Z,19.52
2023-05-12T18:10:11.028Z,19.48
2023-05-12T18:12:39.990Z,19.46
2023-05-12T18:15:08.671Z,19.43
2023-05-12T18:17:36.545Z,19.40
2023-05-12T18:20:06.322Z,19.38
2023-05-12T18:22:33.847Z,19.34
2023-05-12T18:25:02.138Z,19.30
2023-05-12T18:27:29.731Z,19.26
2023-05-12T18:29:58.844Z,19.21
2023-05-12T18:32:26.541Z,19.19
2023-05-12T18:34:56.116Z,19.14
2023-05-12T18:37:24.087Z,19.08
2023-05-12T18:39:54.126Z,19.02
2023-05-12T18:42:22.666Z,18.97
2023-05-12T18:44:51.191Z,18.91
2023-05-12T18:47:21.126Z,18.85
2023-05-12T18:49:49.662Z,18.78
2023-05-12T18:52:17.608Z,18.71
2023-05-12T18:54:46.864Z,18.62
2023-05-12T18:57:16.602Z,18.56
2023-05-12T18:59:44.676Z,18.46
2023-05-12T19:02:12.335Z,18.38
2023-05-12T19:04:41.363Z,18.30
2023-05-12T19:07:10.180Z,18.23
2023-05-12T19:09:38.295Z,18.14
2023-05-12T19:12:10.525Z,18.08
2023-05-12T19:14:38.961Z,17.98
2023-05-12T19:17:07.452Z,17.89
2023-05-12T19:19:35.362Z,17.80
2023-05-12T19:22:04.982Z,17.71
2023-05-12T19:24:32.734Z,17.61
2023-05-12T19:27:00.393Z,17.53
2023-05-12T19:29:28.028Z,17.43
2023-05-12T19:31:56.008Z,17.36
2023-05-12T19:34:23.832Z,17.26
2023-05-12T19:36:52.774Z,17.16
2023-05-12T19:39:21.775Z,17.07
2023-05-12T19:41:51.573Z,16.98
2023-05-12T19:44:19.809Z,16.88
2023-05-12T19:46:47.755Z,16.77
2023-05-12T19:49:16.570Z,16.68
2023-05-12T19:51:44.264Z,16.60
2023-05-12T19:54:11.868Z,16.52
2023-05-12T19:56:41.160Z,16.41
2023-05-12T19:59:08.736Z,16.34
2023-05-12T20:01:36.586Z,16.27
2023-05-12T20:04:07.210Z,16.19
2023-05-12T20:06:36.567Z,16.10
2023-05-12T20:09:04.339Z,16.04
2023-05-12T20:11:32.140Z,15.95
2023-05-12T20:14:02.027Z,15.88
2023-05-12T20:16:30.455Z,15.79
2023-05-12T20:19:00.597Z,15.73
2023-05-12T20:21:31.165Z,15.64
2023-05-12T20:23:59.238Z,15.57
2023-05-12T20:26:52.301Z,15.47
2023-05-12T20:29:21.500Z,15.40
2023-05-12T20:31:49.972Z,15.35
2023-05-12T20:34:18.460Z,15.28
2023-05-12T20:36:47.297Z,15.21
2023-05-12T20:39:15.777Z,15.15
2023-05-12T20:41:44.563Z,15.08
2023-05-12T20:44:12.155Z,15.01
2023-05-12T20:46:41.146Z,14.94
2023-05-12T20:49:09.561Z,14.88
2023-05-12T20:51:37.682Z,14.84
2023-05-12T20:54:05.834Z,14.77
2023-05-12T20:56:34.145Z,14.71
2023-05-12T20:59:01.912Z,14.65
2023-05-12T21:01:29.589Z,14.62
2023-05-12T21:03:59.140Z,14.57
2023-05-12T21:06:27.203Z,14.53
2023-05-12T21:08:54.753Z,14.48
2023-05-12T21:11:22.889Z,14.41
2023-05-12T21:13:50.658Z,14.36
2023-05-12T21:16:18.215Z,14.32
2023-05-12T21:18:46.032Z,14.28
2023-05-12T21:21:15.165Z,14.23
2023-05-12T21:23:42.898Z,14.18
2023-05-12T21:26:11.276Z,14.14
2023-05-12T21:28:38.915Z,14.10
2023-05-12T21:31:06.688Z,14.04
2023-05-12T21:33:34.336Z,14.01
2023-05-12T21:36:01.929Z,13.97
2023-05-12T21:38:32.014Z,13.91
2023-05-12T21:41:00.311Z,13.85
2023-05-12T21:43:28.008Z,13.81
2023-05-12T21:45:56.284Z,13.76
2023-05-12T21:48:24.862Z,13.75
2023-05-12T21:51:01.138Z,13.70
2023-05-12T21:53:31.172Z,13.67
2023-05-12T21:55:58.835Z,13.63
2023-05-12T21:58:26.505Z,13.59
2023-05-12T22:00:54.329Z,13.55
2023-05-12T22:03:24.857Z,13.51
2023-05-12T22:05:53.236Z,13.49
2023-05-12T22:08:21.226Z,13.46
2023-05-12T22:10:50.414Z,13.43
2023-05-12T22:13:18.949Z,13.40
2023-05-12T22:15:46.557Z,13.39
2023-05-12T22:18:14.440Z,13.38
2023-05-12T22:20:42.442Z,13.35
2023-05-12T22:23:10.562Z,13.33
2023-05-12T22:25:39.225Z,13.32
2023-05-12T22:28:08.166Z,13.30
2023-05-12T22:30:35.758Z,13.29
2023-05-12T22:33:03.439Z,13.27
2023-05-12T22:35:31.298Z,13.26
2023-05-12T22:37:59.711Z,13.22
2023-05-12T22:40:27.737Z,13.22
2023-05-12T22:42:56.238Z,13.22
2023-05-12T22:45:25.353Z,13.22
2023-05-12T22:47:53.150Z,13.22
2023-05-12T22:50:21.427Z,13.21
2023-05-12T22:52:49.464Z,13.18
2023-05-12T22:55:17.700Z,13.17
2023-05-12T22:57:46.031Z,13.16
2023-05-12T23:00:15.575Z,13.13
2023-05-12T23:02:44.516Z,13.12
2023-05-12T23:05:12.680Z,13.09
2023-05-12T23:07:40.363Z,13.06
2023-05-12T23:10:09.006Z,13.04
2023-05-12T23:12:36.611Z,13.02
2023-05-12T23:15:05.159Z,13.00
2023-05-12T23:17:32.707Z,12.97
2023-05-12T23:20:01.728Z,12.95
2023-05-12T23:22:29.362Z,12.94
2023-05-12T23:24:58.149Z,12.90
2023-05-12T23:27:25.753Z,12.87
2023-05-12T23:29:53.405Z,12.84
2023-05-12T23:32:22.340Z,12.82
2023-05-12T23:34:50.545Z,12.79
2023-05-12T23:37:20.198Z,12.76
2023-05-12T23:39:47.873Z,12.73
2023-05-12T23:42:17.039Z,12.70
2023-05-12T23:44:44.671Z,12.69
2023-05-12T23:47:12.518Z,12.66
2023-05-12T23:49:40.185Z,12.65
2023-05-12T23:52:08.332Z,12.63
2023-05-12T23:54:37.287Z,12.61
2023-05-12T23:57:05.546Z,12.61
2023-05-12T23:59:33.118Z,12.59
